createdAt,value
2023-02-18T00:01:46.442Z,8.73
2023-02-18T00:04:18.848Z,8.69
2023-02-18T00:06:46.001Z,8.64
2023-02-18T00:09:15.888Z,8.55
2023-02-18T00:11:45.003Z,8.63
2023-02-18T00:14:15.590Z,8.72
2023-02-18T00:16:43.635Z,8.66
2023-02-18T00:19:20.373Z,8.68
2023-02-18T00:21:50.134Z,8.77
2023-02-18T00:24:17.437Z,8.76
2023-02-18T00:26:49.965Z,8.71
2023-02-18T00:29:16.875Z,8.62
2023-02-18T00:31:44.266Z,8.52
2023-02-18T00:34:14.232Z,8.45
2023-02-18T00:36:41.346Z,8.44
2023-02-18T00:39:14.008Z,8.54
2023-02-18T00:41:41.517Z,8.50
2023-02-18T00:44:09.456Z,8.56
2023-02-18T00:46:36.555Z,8.40
2023-02-18T00:49:04.768Z,8.33
2023-02-18T00:51:34.478Z,8.35
2023-02-18T00:54:01.439Z,8.43
2023-02-18T00:56:33.923Z,8.44
2023-02-18T00:59:00.847Z,8.40
2023-02-18T01:01:32.899Z,8.51
2023-02-18T01:03:59.884Z,8.54
2023-02-18T01:06:27.197Z,8.53
2023-02-18T01:08:58.947Z,8.36
2023-02-18T01:11:26.087Z,8.17
2023-02-18T01:13:53.142Z,7.99
2023-02-18T01:16:20.440Z,8.03
2023-02-18T01:18:47.555Z,8.12
2023-02-18T01:21:19.624Z,8.06
2023-02-18T01:23:48.966Z,8.14
2023-02-18T01:26:15.817Z,8.26
2023-02-18T01:28:42.779Z,8.18
2023-02-18T01:31:13.515Z,8.00
2023-02-18T01:33:40.833Z,8.15
2023-02-18T01:36:09.323Z,8.13
2023-02-18T01:38:36.950Z,7.85
2023-02-18T01:41:06.840Z,7.83
2023-02-18T01:43:35.134Z,7.94
2023-02-18T01:46:21.841Z,7.82
2023-02-18T01:48:55.775Z,8.03
2023-02-18T01:51:22.600Z,7.93
2023-02-18T01:53:55.400Z,7.93
2023-02-18T01:57:00.372Z,7.94
2023-02-18T01:59:40.606Z,7.91
2023-02-18T02:02:14.540Z,8.02
2023-02-18T02:04:42.348Z,7.97
2023-02-18T02:07:09.776Z,7.89
2023-02-18T02:09:38.725Z,7.75
2023-02-18T02:12:44.449Z,7.82
2023-02-18T02:15:30.616Z,7.97
2023-02-18T02:18:25.590Z,7.81
2023-02-18T02:21:26.784Z,7.71
2023-02-18T02:24:46.799Z,7.89
2023-02-18T02:27:53.327Z,7.99
2023-02-18T02:30:45.103Z,8.16
2023-02-18T02:33:37.363Z,8.09
2023-02-18T02:36:19.013Z,8.26
2023-02-18T02:39:29.044Z,8.10
2023-02-18T02:42:46.477Z,8.20
2023-02-18T02:45:43.568Z,8.33
2023-02-18T02:48:20.433Z,8.67
2023-02-18T02:51:20.596Z,8.59
2023-02-18T02:53:47.891Z,8.32
2023-02-18T02:56:22.516Z,8.38
2023-02-18T02:59:07.706Z,8.56
2023-02-18T03:02:16.132Z,8.56
2023-02-18T03:05:43.567Z,8.63
2023-02-18T03:08:28.879Z,8.72
2023-02-18T03:11:08.067Z,8.84
2023-02-18T03:13:53.639Z,8.82
2023-02-18T03:17:37.518Z,8.69
2023-02-18T03:20:35.624Z,8.68
2023-02-18T03:23:11.550Z,8.56
2023-02-18T03:25:43.480Z,8.49
2023-02-18T03:28:19.500Z,8.63
2023-02-18T03:30:59.373Z,8.73
2023-02-18T03:33:36.602Z,8.81
2023-02-18T03:36:04.505Z,8.87
2023-02-18T03:38:44.601Z,8.78
2023-02-18T03:41:14.434Z,8.73
2023-02-18T03:43:52.021Z,8.91
2023-02-18T03:46:22.027Z,8.84
2023-02-18T03:48:48.981Z,8.92
2023-02-18T03:51:19.323Z,8.85
2023-02-18T03:53:46.842Z,8.95
2023-02-18T03:56:14.435Z,8.74
2023-02-18T03:58:41.537Z,9.08
2023-02-18T04:01:08.584Z,9.01
2023-02-18T04:03:37.837Z,9.08
2023-02-18T04:06:05.660Z,9.31
2023-02-18T04:08:32.835Z,9.20
2023-02-18T04:11:00.493Z,9.02
2023-02-18T04:13:27.935Z,9.23
2023-02-18T04:15:57.964Z,9.38
2023-02-18T04:18:27.462Z,9.41
2023-02-18T04:20:56.701Z,9.13
2023-02-18T04:23:26.401Z,9.21
2023-02-18T04:25:55.980Z,9.33
2023-02-18T04:28:25.403Z,9.41
2023-02-18T04:30:52.494Z,9.52
2023-02-18T04:33:21.774Z,9.36
2023-02-18T04:35:51.319Z,9.30
2023-02-18T04:38:18.336Z,9.44
2023-02-18T04:40:45.503Z,9.39
2023-02-18T04:43:14.925Z,9.36
2023-02-18T04:45:41.896Z,9.29
2023-02-18T04:48:08.849Z,9.47
2023-02-18T04:50:35.719Z,9.42
2023-02-18T04:53:02.774Z,9.41
2023-02-18T04:55:30.021Z,9.28
2023-02-18T04:57:57.036Z,9.37
2023-02-18T05:00:28.607Z,9.51
2023-02-18T05:02:58.019Z,9.53
2023-02-18T05:05:27.578Z,9.33
2023-02-18T05:07:56.854Z,9.39
2023-02-18T05:10:23.805Z,9.46
2023-02-18T05:12:53.761Z,9.51
2023-02-18T05:15:20.887Z,9.65
2023-02-18T05:17:47.768Z,9.41
2023-02-18T05:20:14.798Z,9.45
2023-02-18T05:22:48.723Z,9.34
2023-02-18T05:25:15.775Z,9.32
2023-02-18T05:27:42.718Z,9.47
2023-02-18T05:30:12.856Z,9.38
2023-02-18T05:32:40.032Z,9.63
2023-02-18T05:35:10.414Z,9.27
2023-02-18T05:37:44.728Z,9.31
2023-02-18T05:40:16.872Z,9.33
2023-02-18T05:42:48.290Z,9.49
2023-02-18T05:45:15.293Z,9.60
2023-02-18T05:47:44.247Z,9.58
2023-02-18T05:50:11.414Z,9.87
2023-02-18T05:52:38.256Z,9.74
2023-02-18T05:55:07.668Z,9.68
2023-02-18T05:57:34.551Z,9.77
2023-02-18T06:00:01.391Z,9.79
2023-02-18T06:02:30.360Z,9.90
2023-02-18T06:04:59.691Z,10.02
2023-02-18T06:07:26.547Z,9.93
2023-02-18T06:09:53.895Z,9.90
2023-02-18T06:12:20.721Z,10.06
2023-02-18T06:14:47.723Z,10.09
2023-02-18T06:17:16.160Z,10.05
2023-02-18T06:19:43.125Z,10.03
2023-02-18T06:22:17.641Z,9.93
2023-02-18T06:24:44.681Z,9.98
2023-02-18T06:27:13.691Z,10.20
2023-02-18T06:29:40.534Z,10.18
2023-02-18T06:32:07.489Z,10.01
2023-02-18T06:34:34.461Z,9.87
2023-02-18T06:37:01.549Z,9.89
2023-02-18T06:39:29.021Z,9.62
2023-02-18T06:41:58.438Z,9.91
2023-02-18T06:44:25.271Z,10.01
2023-02-18T06:46:55.124Z,9.90
2023-02-18T06:49:25.044Z,9.93
2023-02-18T06:51:51.917Z,9.97
2023-02-18T06:54:18.834Z,9.95
2023-02-18T06:56:45.760Z,9.73
2023-02-18T06:59:14.993Z,9.88
2023-02-18T07:01:41.821Z,9.70
2023-02-18T07:04:11.777Z,9.86
2023-02-18T07:06:38.648Z,9.67
2023-02-18T07:09:06.311Z,9.57
2023-02-18T07:11:33.327Z,9.71
2023-02-18T07:14:00.176Z,9.54
2023-02-18T07:16:27.132Z,9.42
2023-02-18T07:18:58.973Z,9.80
2023-02-18T07:21:26.004Z,9.84
2023-02-18T07:23:52.892Z,9.66
2023-02-18T07:26:24.286Z,9.72
2023-02-18T07:28:51.089Z,9.88
2023-02-18T07:31:21.048Z,9.54
2023-02-18T07:33:50.139Z,9.61
2023-02-18T07:36:19.380Z,9.86
2023-02-18T07:38:49.286Z,9.97
2023-02-18T07:41:20.366Z,10.12
2023-02-18T07:43:52.208Z,10.03
2023-02-18T07:46:19.872Z,9.98
2023-02-18T07:48:48.782Z,9.72
2023-02-18T07:51:15.921Z,9.73
2023-02-18T07:53:44.080Z,9.75
2023-02-18T07:56:12.195Z,9.74
2023-02-18T07:58:42.631Z,9.68
2023-02-18T08:01:15.864Z,9.63
2023-02-18T08:03:43.402Z,9.33
2023-02-18T08:06:42.999Z,9.53
2023-02-18T08:09:10.444Z,9.81
2023-02-18T08:11:37.591Z,9.88
2023-02-18T08:14:07.566Z,9.82
2023-02-18T08:16:41.831Z,10.02
2023-02-18T08:19:18.724Z,9.99
2023-02-18T08:21:49.558Z,10.09
2023-02-18T08:24:17.410Z,9.69
2023-02-18T08:26:59.484Z,9.54
2023-02-18T08:29:31.964Z,9.59
2023-02-18T08:31:59.840Z,9.38
2023-02-18T08:34:29.620Z,9.26
2023-02-18T08:36:56.594Z,9.48
2023-02-18T08:39:26.421Z,9.51
2023-02-18T08:41:55.538Z,9.62
2023-02-18T08:44:22.508Z,9.54
2023-02-18T08:46:49.518Z,9.45
2023-02-18T08:49:21.285Z,9.61
2023-02-18T08:52:04.518Z,9.44
2023-02-18T08:54:34.544Z,9.29
2023-02-18T08:57:08.043Z,9.12
2023-02-18T08:59:37.446Z,9.21
2023-02-18T09:02:05.842Z,9.30
2023-02-18T09:04:33.321Z,9.30
2023-02-18T09:07:00.228Z,9.34
2023-02-18T09:09:29.419Z,9.54
2023-02-18T09:11:56.578Z,9.67
2023-02-18T09:14:26.677Z,9.97
2023-02-18T09:16:57.193Z,10.14
2023-02-18T09:19:25.209Z,10.26
2023-02-18T09:21:54.634Z,10.37
2023-02-18T09:24:24.694Z,10.41
2023-02-18T09:26:52.018Z,10.36
2023-02-18T09:32:22.613Z,10.23
2023-02-18T09:35:04.726Z,9.78
2023-02-18T09:37:31.631Z,9.92
2023-02-18T09:40:00.046Z,9.97
2023-02-18T09:42:35.160Z,9.81
2023-02-18T09:45:07.490Z,9.87
2023-02-18T09:47:41.360Z,10.03
2023-02-18T09:50:18.783Z,10.13
2023-02-18T09:52:50.676Z,10.26
2023-02-18T09:55:30.900Z,10.28
2023-02-18T09:58:08.460Z,10.26
2023-02-18T10:00:42.607Z,10.42
2023-02-18T10:03:18.106Z,10.51
2023-02-18T10:06:06.550Z,10.72
2023-02-18T10:08:45.218Z,10.71
2023-02-18T10:11:28.939Z,10.76
2023-02-18T10:13:57.478Z,10.73
2023-02-18T10:16:25.433Z,10.78
2023-02-18T10:19:00.210Z,10.80
2023-02-18T10:21:35.962Z,10.70
2023-02-18T10:24:26.337Z,10.75
2023-02-18T10:26:55.659Z,10.58
2023-02-18T10:29:26.360Z,10.51
2023-02-18T10:32:23.740Z,10.56
2023-02-18T10:35:00.419Z,10.78
2023-02-18T10:37:44.780Z,11.02
2023-02-18T10:40:30.521Z,10.92
2023-02-18T10:43:23.263Z,11.30
2023-02-18T10:46:18.918Z,11.01
2023-02-18T10:49:00.440Z,11.24
2023-02-18T10:51:35.760Z,11.33
2023-02-18T10:54:06.846Z,11.63
2023-02-18T10:56:38.706Z,11.54
2023-02-18T10:59:25.384Z,11.74
2023-02-18T11:02:12.212Z,11.90
2023-02-18T11:04:43.618Z,11.95
2023-02-18T11:07:23.932Z,12.04
2023-02-18T11:09:54.878Z,12.24
2023-02-18T11:12:58.737Z,12.09
2023-02-18T11:15:27.523Z,12.03
2023-02-18T11:18:00.031Z,12.19
2023-02-18T11:20:38.503Z,12.33
2023-02-18T11:23:18.573Z,12.26
2023-02-18T11:26:07.305Z,12.44
2023-02-18T11:28:45.393Z,12.38
2023-02-18T11:31:23.745Z,12.25
2023-02-18T11:33:57.567Z,12.22
2023-02-18T11:36:40.058Z,12.29
2023-02-18T11:39:24.447Z,12.24
2023-02-18T11:42:05.128Z,12.44
2023-02-18T11:44:37.594Z,12.78
2023-02-18T11:47:17.114Z,12.48
2023-02-18T11:50:02.765Z,12.41
2023-02-18T11:52:44.485Z,12.38
2023-02-18T11:55:27.676Z,12.51
2023-02-18T11:58:03.386Z,12.37
2023-02-18T12:00:47.217Z,12.41
2023-02-18T12:03:40.443Z,12.34
2023-02-18T12:06:20.934Z,12.31
2023-02-18T12:09:05.339Z,12.34
2023-02-18T12:11:44.703Z,12.43
2023-02-18T12:14:23.808Z,12.31
2023-02-18T12:17:31.619Z,12.38
2023-02-18T12:20:29.851Z,12.52
2023-02-18T12:23:34.439Z,12.31
2023-02-18T12:26:27.396Z,12.22
2023-02-18T12:29:05.759Z,12.43
2023-02-18T12:31:51.231Z,12.50
2023-02-18T12:34:43.176Z,12.59
2023-02-18T12:37:37.387Z,12.39
2023-02-18T12:40:36.385Z,12.44
2023-02-18T12:43:17.225Z,12.28
2023-02-18T12:46:24.153Z,12.36
2023-02-18T12:49:37.948Z,12.19
2023-02-18T12:52:37.056Z,12.56
2023-02-18T12:55:41.970Z,12.65
2023-02-18T12:58:39.712Z,12.63
2023-02-18T13:01:33.244Z,12.80
2023-02-18T13:04:39.797Z,12.70
2023-02-18T13:07:12.658Z,12.59
2023-02-18T13:10:17.143Z,12.52
2023-02-18T13:13:11.049Z,12.51
2023-02-18T13:16:22.689Z,12.43
2023-02-18T13:19:19.314Z,12.58
2023-02-18T13:21:49.912Z,12.61
2023-02-18T13:24:33.183Z,12.67
2023-02-18T13:27:34.202Z,12.38
2023-02-18T13:30:26.160Z,12.42
2023-02-18T13:33:57.175Z,12.60
2023-02-18T13:36:59.633Z,12.68
2023-02-18T13:39:27.489Z,12.64
2023-02-18T13:42:22.913Z,12.54
2023-02-18T13:44:55.888Z,12.71
2023-02-18T13:47:45.552Z,12.65
2023-02-18T13:50:30.330Z,12.43
2023-02-18T13:53:09.584Z,12.40
2023-02-18T13:56:28.406Z,12.41
2023-02-18T13:59:11.357Z,12.43
2023-02-18T14:01:49.644Z,12.60
2023-02-18T14:04:44.390Z,12.79
2023-02-18T14:07:44.498Z,12.58
2023-02-18T14:10:18.259Z,12.74
2023-02-18T14:12:57.926Z,12.74
2023-02-18T14:15:24.878Z,12.81
2023-02-18T14:18:12.949Z,12.54
2023-02-18T14:20:39.877Z,12.28
2023-02-18T14:23:18.497Z,12.16
2023-02-18T14:26:05.701Z,12.28
2023-02-18T14:28:40.707Z,12.37
2023-02-18T14:31:14.122Z,12.29
2023-02-18T14:33:49.867Z,12.28
2023-02-18T14:36:25.646Z,12.36
2023-02-18T14:39:35.850Z,12.35
2023-02-18T14:42:22.227Z,12.57
2023-02-18T14:45:11.043Z,12.51
2023-02-18T14:48:02.641Z,12.51
2023-02-18T14:50:35.981Z,12.23
2023-02-18T14:53:18.460Z,12.13
2023-02-18T14:55:50.152Z,12.30
2023-02-18T14:58:43.691Z,12.46
2023-02-18T15:01:24.455Z,12.50
2023-02-18T15:03:54.650Z,12.42
2023-02-18T15:06:38.404Z,12.31
2023-02-18T15:09:19.971Z,12.21
2023-02-18T15:12:05.884Z,12.04
2023-02-18T15:14:42.410Z,12.08
2023-02-18T15:17:31.979Z,12.19
2023-02-18T15:20:06.630Z,12.25
2023-02-18T15:22:36.265Z,12.18
2023-02-18T15:25:06.040Z,12.17
2023-02-18T15:27:39.128Z,12.29
2023-02-18T15:30:31.475Z,12.36
2023-02-18T15:33:02.145Z,12.46
2023-02-18T15:35:33.071Z,12.41
2023-02-18T15:38:04.655Z,12.29
2023-02-18T15:40:35.549Z,12.32
2023-02-18T15:43:05.239Z,12.26
2023-02-18T15:45:38.507Z,12.38
2023-02-18T15:48:06.379Z,12.04
2023-02-18T15:50:47.053Z,12.10
2023-02-18T15:53:21.169Z,12.33
2023-02-18T15:55:51.313Z,12.67
2023-02-18T15:58:28.861Z,12.72
2023-02-18T16:01:04.737Z,12.74
2023-02-18T16:03:49.100Z,12.49
2023-02-18T16:06:23.224Z,12.25
2023-02-18T16:09:19.470Z,12.07
2023-02-18T16:11:54.474Z,11.77
2023-02-18T16:14:28.041Z,11.78
2023-02-18T16:17:13.022Z,11.76
2023-02-18T16:20:15.089Z,11.94
2023-02-18T16:22:56.190Z,12.25
2023-02-18T16:25:35.736Z,12.24
2023-02-18T16:28:02.632Z,12.02
2023-02-18T16:30:36.390Z,12.09
2023-02-18T16:33:04.050Z,12.20
2023-02-18T16:35:44.012Z,12.26
2023-02-18T16:38:25.331Z,12.25
2023-02-18T16:40:56.846Z,12.16
2023-02-18T16:43:27.364Z,12.24
2023-02-18T16:45:58.025Z,12.34
2023-02-18T16:48:42.137Z,12.17
2023-02-18T16:51:21.433Z,12.36
2023-02-18T16:53:48.491Z,12.33
2023-02-18T16:56:19.667Z,12.19
2023-02-18T16:58:50.604Z,12.03
2023-02-18T17:01:44.081Z,12.02
2023-02-18T17:04:17.077Z,11.84
2023-02-18T17:06:49.525Z,11.98
2023-02-18T17:09:21.280Z,11.64
2023-02-18T17:11:51.087Z,11.68
2023-02-18T17:14:20.250Z,11.24
2023-02-18T17:16:50.121Z,11.46
2023-02-18T17:19:17.400Z,11.61
2023-02-18T17:21:48.697Z,11.60
2023-02-18T17:24:18.009Z,11.62
2023-02-18T17:26:47.458Z,11.18
2023-02-18T17:29:14.250Z,11.39
2023-02-18T17:31:47.724Z,11.19
2023-02-18T17:34:32.529Z,11.12
2023-02-18T17:37:02.104Z,10.99
2023-02-18T17:39:29.929Z,10.64
2023-02-18T17:41:59.365Z,10.66
2023-02-18T17:44:29.720Z,10.92
2023-02-18T17:46:56.634Z,10.97
2023-02-18T17:49:23.519Z,10.71
2023-02-18T17:51:53.195Z,10.57
2023-02-18T17:54:22.808Z,10.63
2023-02-18T17:56:55.661Z,10.61
2023-02-18T17:59:25.211Z,10.67
2023-02-18T18:01:54.302Z,10.73
2023-02-18T18:04:21.219Z,10.71
2023-02-18T18:06:51.182Z,10.78
2023-02-18T18:09:18.236Z,10.66
2023-02-18T18:11:45.117Z,10.67
2023-02-18T18:14:15.213Z,10.66
2023-02-18T18:16:44.271Z,10.59
2023-02-18T18:19:13.627Z,10.75
2023-02-18T18:21:43.071Z,10.80
2023-02-18T18:24:12.907Z,10.79
2023-02-18T18:26:44.394Z,10.74
2023-02-18T18:29:13.386Z,10.58
2023-02-18T18:31:40.452Z,10.54
2023-02-18T18:34:12.558Z,10.65
2023-02-18T18:36:41.730Z,10.70
2023-02-18T18:39:09.461Z,10.74
2023-02-18T18:41:36.497Z,10.45
2023-02-18T18:44:06.596Z,10.38
2023-02-18T18:46:33.617Z,10.55
2023-02-18T18:49:00.518Z,10.58
2023-02-18T18:51:32.835Z,10.51
2023-02-18T18:53:59.775Z,10.49
2023-02-18T18:56:26.684Z,10.56
2023-02-18T18:58:53.839Z,10.48
2023-02-18T19:01:27.101Z,10.46
2023-02-18T19:03:54.285Z,10.22
2023-02-18T19:06:21.610Z,10.43
2023-02-18T19:08:48.652Z,10.53
2023-02-18T19:11:17.143Z,10.31
2023-02-18T19:13:45.769Z,10.52
2023-02-18T19:16:26.617Z,10.50
2023-02-18T19:18:55.959Z,10.41
2023-02-18T19:21:22.850Z,10.44
2023-02-18T19:23:52.209Z,10.10
2023-02-18T19:26:21.231Z,10.23
2023-02-18T19:28:50.614Z,10.10
2023-02-18T19:31:17.733Z,10.09
2023-02-18T19:33:47.253Z,10.24
2023-02-18T19:36:18.728Z,10.24
2023-02-18T19:38:46.605Z,10.30
2023-02-18T19:41:17.074Z,10.43
2023-02-18T19:43:46.506Z,10.45
2023-02-18T19:46:21.682Z,10.67
2023-02-18T19:48:52.344Z,10.65
2023-02-18T19:51:21.236Z,10.57
2023-02-18T19:53:48.207Z,10.55
2023-02-18T19:56:15.189Z,10.38
2023-02-18T19:58:44.634Z,10.27
2023-02-18T20:01:19.237Z,10.23
2023-02-18T20:03:47.195Z,9.96
2023-02-18T20:06:21.779Z,10.09
2023-02-18T20:08:48.941Z,10.25
2023-02-18T20:11:16.037Z,10.34
2023-02-18T20:13:44.540Z,10.22
2023-02-18T20:16:12.200Z,10.27
2023-02-18T20:18:42.273Z,10.37
2023-02-18T20:21:14.458Z,10.13
2023-02-18T20:23:42.116Z,10.21
2023-02-18T20:26:15.222Z,10.09
2023-02-18T20:28:42.884Z,10.19
2023-02-18T20:31:13.940Z,10.11
2023-02-18T20:33:44.281Z,10.08
2023-02-18T20:36:14.437Z,9.90
2023-02-18T20:38:44.353Z,10.16
2023-02-18T20:41:17.719Z,10.21
2023-02-18T20:43:46.212Z,10.15
2023-02-18T20:46:17.596Z,10.07
2023-02-18T20:48:45.251Z,10.02
2023-02-18T20:51:16.316Z,10.00
2023-02-18T20:53:46.167Z,10.07
2023-02-18T20:56:15.961Z,9.88
2023-02-18T20:58:45.275Z,9.98
2023-02-18T21:01:15.694Z,10.00
2023-02-18T21:03:45.137Z,10.00
2023-02-18T21:06:19.321Z,10.02
2023-02-18T21:08:48.935Z,10.02
2023-02-18T21:11:22.203Z,9.91
2023-02-18T21:13:51.819Z,9.94
2023-02-18T21:16:20.791Z,10.00
2023-02-18T21:18:48.453Z,9.96
2023-02-18T21:21:18.707Z,9.96
2023-02-18T21:23:46.174Z,9.96
2023-02-18T21:26:23.313Z,9.86
2023-02-18T21:28:56.539Z,9.69
2023-02-18T21:31:29.906Z,9.93
2023-02-18T21:33:57.843Z,10.03
2023-02-18T21:36:28.263Z,9.88
2023-02-18T21:39:02.937Z,9.96
2023-02-18T21:41:31.002Z,10.06
2023-02-18T21:44:02.438Z,9.76
2023-02-18T21:46:36.743Z,9.85
2023-02-18T21:49:09.964Z,9.92
2023-02-18T21:51:56.405Z,9.77
2023-02-18T21:54:45.497Z,9.75
2023-02-18T21:57:16.721Z,9.84
2023-02-18T21:59:45.408Z,9.62
2023-02-18T22:02:28.205Z,9.66
2023-02-18T22:04:55.614Z,9.61
2023-02-18T22:07:25.942Z,9.34
2023-02-18T22:09:56.310Z,9.59
2023-02-18T22:12:26.585Z,9.57
2023-02-18T22:14:53.686Z,9.54
2023-02-18T22:17:21.596Z,9.26
2023-02-18T22:19:49.260Z,9.24
2023-02-18T22:22:20.716Z,9.47
2023-02-18T22:24:47.658Z,9.56
2023-02-18T22:27:16.881Z,9.67
2023-02-18T22:29:47.225Z,9.43
2023-02-18T22:32:16.835Z,9.32
2023-02-18T22:34:43.773Z,9.53
2023-02-18T22:37:10.902Z,9.63
2023-02-18T22:39:37.931Z,9.43
2023-02-18T22:42:05.372Z,9.37
2023-02-18T22:44:32.369Z,9.39
2023-02-18T22:46:59.402Z,9.57
2023-02-18T22:49:29.465Z,9.51
2023-02-18T22:51:56.373Z,9.47
2023-02-18T22:54:25.484Z,9.52
2023-02-18T22:56:54.885Z,9.51
2023-02-18T22:59:21.807Z,9.51
2023-02-18T23:01:49.754Z,9.45
2023-02-18T23:04:19.129Z,9.33
2023-02-18T23:06:46.827Z,9.24
2023-02-18T23:09:20.338Z,8.92
2023-02-18T23:11:51.478Z,8.95
2023-02-18T23:14:21.896Z,9.20
2023-02-18T23:17:08.801Z,9.30
2023-02-18T23:19:40.374Z,9.16
2023-02-18T23:22:09.614Z,9.26
2023-02-18T23:24:43.659Z,9.13
2023-02-18T23:27:13.591Z,9.20
2023-02-18T23:29:45.543Z,9.35
2023-02-18T23:32:13.180Z,9.13
2023-02-18T23:34:42.657Z,9.28
2023-02-18T23:37:10.254Z,9.46
2023-02-18T23:39:37.560Z,9.31
2023-02-18T23:42:04.669Z,9.47
2023-02-18T23:44:32.003Z,9.36
2023-02-18T23:47:01.276Z,9.33
2023-02-18T23:49:28.848Z,9.49
2023-02-18T23:51:59.372Z,9.26
2023-02-18T23:54:26.591Z,9.33
2023-02-18T23:56:53.648Z,9.57
2023-02-18T23:59:20.706Z,9.57
